sensor_id;sensor_type;location;lat;lon;timestamp;pressure;altitude;pressure_sealevel;temperature;humidity
31681;BME280;18281;51.364;9.566;2023-01-31T00:00:45;100511.50;;;0.52;100.00
31681;BME280;18281;51.364;9.566;2023-01-31T00:03:11;100508.94;;;0.52;100.00
31681;BME280;18281;51.364;9.566;2023-01-31T00:05:36;100510.66;;;0.53;100.00
31681;BME280;18281;51.364;9.566;2023-01-31T00:08:01;100510.66;;;0.53;100.00
31681;BME280;18281;51.364;9.566;2023-01-31T00:10:27;100508.94;;;0.51;100.00
31681;BME280;18281;51.364;9.566;2023-01-31T00:12:52;100516.69;;;0.52;100.00
31681;BME280;18281;51.364;9.566;2023-01-31T00:15:17;100521.84;;;0.51;100.00
31681;BME280;18281;51.364;9.566;2023-01-31T00:17:43;100508.09;;;0.47;100.00
31681;BME280;18281;51.364;9.566;2023-01-31T00:20:10;100510.66;;;0.50;100.00
31681;BME280;18281;51.364;9.566;2023-01-31T00:22:36;100514.09;;;0.52;100.00
31681;BME280;18281;51.364;9.566;2023-01-31T00:25:01;100515.00;;;0.44;100.00
31681;BME280;18281;51.364;9.566;2023-01-31T00:27:26;100525.34;;;0.42;100.00
31681;BME280;18281;51.364;9.566;2023-01-31T00:29:52;100511.59;;;0.39;100.00
31681;BME280;18281;51.364;9.566;2023-01-31T00:32:17;100515.00;;;0.44;100.00
31681;BME280;18281;51.364;9.566;2023-01-31T00:34:43;100511.56;;;0.43;100.00
31681;BME280;18281;51.364;9.566;2023-01-31T00:37:08;100520.19;;;0.45;100.00
31681;BME280;18281;51.364;9.566;2023-01-31T00:39:33;100522.72;;;0.54;100.00
31681;BME280;18281;51.364;9.566;2023-01-31T00:41:59;100517.59;;;0.47;100.00
31681;BME280;18281;51.364;9.566;2023-01-31T00:44:24;100528.75;;;0.52;100.00
31681;BME280;18281;51.364;9.566;2023-01-31T00:46:49;100534.72;;;0.60;100.00
31681;BME280;18281;51.364;9.566;2023-01-31T00:49:14;100534.72;;;0.62;100.00
31681;BME280;18281;51.364;9.566;2023-01-31T00:51:40;100520.13;;;0.51;100.00
31681;BME280;18281;51.364;9.566;2023-01-31T00:54:05;100531.28;;;0.63;100.00
31681;BME280;18281;51.364;9.566;2023-01-31T00:56:30;100526.13;;;0.57;100.00
31681;BME280;18281;51.364;9.566;2023-01-31T00:58:56;100528.72;;;0.50;100.00
31681;BME280;18281;51.364;9.566;2023-01-31T01:01:24;100527.88;;;0.50;100.00
31681;BME280;18281;51.364;9.566;2023-01-31T01:03:50;100528.72;;;0.50;100.00
31681;BME280;18281;51.364;9.566;2023-01-31T01:06:16;100536.53;;;0.46;100.00
31681;BME280;18281;51.364;9.566;2023-01-31T01:08:42;100545.97;;;0.48;100.00
31681;BME280;18281;51.364;9.566;2023-01-31T01:11:14;100541.66;;;0.49;100.00
31681;BME280;18281;51.364;9.566;2023-01-31T01:13:40;100537.38;;;0.49;100.00
31681;BME280;18281;51.364;9.566;2023-01-31T01:16:11;100539.97;;;0.45;100.00
31681;BME280;18281;51.364;9.566;2023-01-31T01:18:37;100553.75;;;0.44;100.00
31681;BME280;18281;51.364;9.566;2023-01-31T01:21:12;100544.28;;;0.44;100.00
31681;BME280;18281;51.364;9.566;2023-01-31T01:23:39;100559.78;;;0.46;100.00
31681;BME280;18281;51.364;9.566;2023-01-31T01:26:05;100566.69;;;0.45;100.00
31681;BME280;18281;51.364;9.566;2023-01-31T01:28:34;100561.56;;;0.36;100.00
31681;BME280;18281;51.364;9.566;2023-01-31T01:31:07;100562.38;;;0.38;100.00
31681;BME280;18281;51.364;9.566;2023-01-31T01:33:33;100564.97;;;0.38;100.00
31681;BME280;18281;51.364;9.566;2023-01-31T01:36:04;100558.09;;;0.40;100.00
31681;BME280;18281;51.364;9.566;2023-01-31T01:38:30;100556.34;;;0.39;100.00
31681;BME280;18281;51.364;9.566;2023-01-31T01:40:57;100563.25;;;0.37;100.00
31681;BME280;18281;51.364;9.566;2023-01-31T01:46:33;100567.53;;;0.44;100.00
31681;BME280;18281;51.364;9.566;2023-01-31T01:49:05;100562.34;;;0.47;100.00
31681;BME280;18281;51.364;9.566;2023-01-31T01:51:37;100565.78;;;0.46;100.00
31681;BME280;18281;51.364;9.566;2023-01-31T01:54:05;100571.84;;;0.45;100.00
31681;BME280;18281;51.364;9.566;2023-01-31T01:56:36;100570.97;;;0.48;100.00
31681;BME280;18281;51.364;9.566;2023-01-31T01:59:08;100574.38;;;0.51;100.00
31681;BME280;18281;51.364;9.566;2023-01-31T02:01:37;100573.53;;;0.46;100.00
31681;BME280;18281;51.364;9.566;2023-01-31T02:04:05;100576.13;;;0.45;100.00
31681;BME280;18281;51.364;9.566;2023-01-31T02:06:31;100589.00;;;0.57;100.00
31681;BME280;18281;51.364;9.566;2023-01-31T02:08:57;100586.47;;;0.49;100.00
31681;BME280;18281;51.364;9.566;2023-01-31T02:11:28;100594.19;;;0.46;100.00
31681;BME280;18281;51.364;9.566;2023-01-31T02:14:02;100594.22;;;0.49;100.00
31681;BME280;18281;51.364;9.566;2023-01-31T02:16:29;100590.81;;;0.41;100.00
31681;BME280;18281;51.364;9.566;2023-01-31T02:18:55;100600.25;;;0.44;100.00
31681;BME280;18281;51.364;9.566;2023-01-31T02:21:39;100593.34;;;0.46;100.00
31681;BME280;18281;51.364;9.566;2023-01-31T02:38:29;100602.84;;;0.42;100.00
31681;BME280;18281;51.364;9.566;2023-01-31T02:43:52;100611.44;;;0.44;100.00
31681;BME280;18281;51.364;9.566;2023-01-31T02:46:48;100608.00;;;0.41;100.00
31681;BME280;18281;51.364;9.566;2023-01-31T02:49:22;100600.28;;;0.39;100.00
31681;BME280;18281;51.364;9.566;2023-01-31T02:52:24;100603.72;;;0.43;100.00
31681;BME280;18281;51.364;9.566;2023-01-31T02:57:40;100610.63;;;0.37;100.00
31681;BME280;18281;51.364;9.566;2023-01-31T03:00:09;100611.50;;;0.35;100.00
31681;BME280;18281;51.364;9.566;2023-01-31T03:02:34;100614.06;;;0.35;100.00
31681;BME280;18281;51.364;9.566;2023-01-31T03:04:59;100622.66;;;0.35;100.00
31681;BME280;18281;51.364;9.566;2023-01-31T03:07:28;100632.16;;;0.35;100.00
31681;BME280;18281;51.364;9.566;2023-01-31T03:10:27;100617.50;;;0.35;100.00
31681;BME280;18281;51.364;9.566;2023-01-31T03:18:33;100610.59;;;0.39;100.00
31681;BME280;18281;51.364;9.566;2023-01-31T03:21:13;100616.69;;;0.23;100.00
31681;BME280;18281;51.364;9.566;2023-01-31T03:23:44;100616.66;;;0.41;100.00
31681;BME280;18281;51.364;9.566;2023-01-31T03:26:12;100623.50;;;0.45;100.00
31681;BME280;18281;51.364;9.566;2023-01-31T03:28:40;100624.38;;;0.44;100.00
31681;BME280;18281;51.364;9.566;2023-01-31T03:31:09;100621.75;;;0.50;100.00
31681;BME280;18281;51.364;9.566;2023-01-31T03:33:37;100616.56;;;0.57;100.00
31681;BME280;18281;51.364;9.566;2023-01-31T03:42:05;100616.59;;;0.49;100.00
31681;BME280;18281;51.364;9.566;2023-01-31T03:47:32;100617.44;;;0.54;100.00
31681;BME280;18281;51.364;9.566;2023-01-31T03:50:04;100613.13;;;0.51;100.00
31681;BME280;18281;51.364;9.566;2023-01-31T03:52:34;100617.44;;;0.52;100.00
31681;BME280;18281;51.364;9.566;2023-01-31T03:55:08;100603.63;;;0.60;100.00
31681;BME280;18281;51.364;9.566;2023-01-31T03:57:37;100603.69;;;0.46;100.00
31681;BME280;18281;51.364;9.566;2023-01-31T04:00:07;100599.38;;;0.46;100.00
31681;BME280;18281;51.364;9.566;2023-01-31T04:02:35;100603.69;;;0.47;100.00
31681;BME280;18281;51.364;9.566;2023-01-31T04:05:12;100601.13;;;0.44;100.00
31681;BME280;18281;51.364;9.566;2023-01-31T04:07:41;100599.38;;;0.49;100.00
31681;BME280;18281;51.364;9.566;2023-01-31T04:10:11;100595.94;;;0.46;100.00
31681;BME280;18281;51.364;9.566;2023-01-31T04:12:38;100588.19;;;0.46;100.00
31681;BME280;18281;51.364;9.566;2023-01-31T04:15:05;100595.03;;;0.56;100.00
31681;BME280;18281;51.364;9.566;2023-01-31T04:17:30;100592.50;;;0.44;100.00
31681;BME280;18281;51.364;9.566;2023-01-31T04:19:57;100586.47;;;0.49;100.00
31681;BME280;18281;51.364;9.566;2023-01-31T04:22:23;100590.75;;;0.55;100.00
31681;BME280;18281;51.364;9.566;2023-01-31T04:24:48;100581.22;;;0.62;100.00
31681;BME280;18281;51.364;9.566;2023-01-31T04:27:13;100585.53;;;0.60;100.00
31681;BME280;18281;51.364;9.566;2023-01-31T04:29:39;100587.34;;;0.47;100.00
31681;BME280;18281;51.364;9.566;2023-01-31T04:32:05;100585.53;;;0.58;100.00
31681;BME280;18281;51.364;9.566;2023-01-31T04:34:30;100595.91;;;0.50;100.00
31681;BME280;18281;51.364;9.566;2023-01-31T04:36:56;100597.66;;;0.44;100.00
31681;BME280;18281;51.364;9.566;2023-01-31T04:39:21;100595.97;;;0.41;100.00
31681;BME280;18281;51.364;9.566;2023-01-31T04:41:46;100596.84;;;0.35;100.00
31681;BME280;18281;51.364;9.566;2023-01-31T04:44:12;100599.41;;;0.40;100.00
31681;BME280;18281;51.364;9.566;2023-01-31T04:46:38;100594.25;;;0.37;100.00
31681;BME280;18281;51.364;9.566;2023-01-31T04:49:03;100596.84;;;0.34;100.00
31681;BME280;18281;51.364;9.566;2023-01-31T04:51:29;100589.94;;;0.33;100.00
31681;BME280;18281;51.364;9.566;2023-01-31T04:53:54;100583.09;;;0.33;100.00
31681;BME280;18281;51.364;9.566;2023-01-31T04:56:20;100577.91;;;0.35;100.00
31681;BME280;18281;51.364;9.566;2023-01-31T04:58:46;100577.91;;;0.30;100.00
31681;BME280;18281;51.364;9.566;2023-01-31T05:01:12;100577.91;;;0.29;100.00
31681;BME280;18281;51.364;9.566;2023-01-31T05:03:38;100575.31;;;0.30;100.00
31681;BME280;18281;51.364;9.566;2023-01-31T05:06:03;100567.59;;;0.27;100.00
31681;BME280;18281;51.364;9.566;2023-01-31T05:08:29;100576.22;;;0.29;100.00
31681;BME280;18281;51.364;9.566;2023-01-31T05:11:01;100567.63;;;0.23;100.00
31681;BME280;18281;51.364;9.566;2023-01-31T05:13:27;100572.78;;;0.26;100.00
31681;BME280;18281;51.364;9.566;2023-01-31T05:15:54;100572.78;;;0.24;100.00
31681;BME280;18281;51.364;9.566;2023-01-31T05:18:22;100574.50;;;0.25;100.00
31681;BME280;18281;51.364;9.566;2023-01-31T05:20:47;100570.16;;;0.29;100.00
31681;BME280;18281;51.364;9.566;2023-01-31T05:23:14;100566.72;;;0.31;100.00
31681;BME280;18281;51.364;9.566;2023-01-31T05:25:40;100576.16;;;0.35;100.00
31681;BME280;18281;51.364;9.566;2023-01-31T05:28:06;100569.31;;;0.34;100.00
31681;BME280;18281;51.364;9.566;2023-01-31T05:30:31;100569.25;;;0.44;100.00
31681;BME280;18281;51.364;9.566;2023-01-31T05:32:57;100564.97;;;0.40;100.00
31681;BME280;18281;51.364;9.566;2023-01-31T05:35:22;100580.47;;;0.41;100.00
31681;BME280;18281;51.364;9.566;2023-01-31T05:37:47;100579.59;;;0.39;100.00
31681;BME280;18281;51.364;9.566;2023-01-31T05:40:15;100579.59;;;0.39;100.00
31681;BME280;18281;51.364;9.566;2023-01-31T05:42:42;100576.16;;;0.37;100.00
31681;BME280;18281;51.364;9.566;2023-01-31T05:45:09;100571.00;;;0.42;100.00
31681;BME280;18281;51.364;9.566;2023-01-31T05:47:35;100576.19;;;0.31;100.00
31681;BME280;18281;51.364;9.566;2023-01-31T05:50:01;100575.34;;;0.33;100.00
31681;BME280;18281;51.364;9.566;2023-01-31T05:52:26;100578.75;;;0.34;100.00
31681;BME280;18281;51.364;9.566;2023-01-31T05:54:52;100577.91;;;0.35;100.00
31681;BME280;18281;51.364;9.566;2023-01-31T05:57:17;100579.63;;;0.37;100.00
31681;BME280;18281;51.364;9.566;2023-01-31T05:59:43;100563.25;;;0.34;100.00
31681;BME280;18281;51.364;9.566;2023-01-31T06:02:08;100571.91;;;0.27;100.00
31681;BME280;18281;51.364;9.566;2023-01-31T06:04:36;100570.16;;;0.29;100.00
31681;BME280;18281;51.364;9.566;2023-01-31T06:07:01;100568.47;;;0.31;100.00
31681;BME280;18281;51.364;9.566;2023-01-31T06:09:27;100555.50;;;0.40;100.00
31681;BME280;18281;51.364;9.566;2023-01-31T06:11:52;100562.41;;;0.33;100.00
31681;BME280;18281;51.364;9.566;2023-01-31T06:14:17;100553.75;;;0.42;100.00
31681;BME280;18281;51.364;9.566;2023-01-31T06:16:43;100550.34;;;0.39;100.00
31681;BME280;18281;51.364;9.566;2023-01-31T06:19:08;100551.22;;;0.37;100.00
31681;BME280;18281;51.364;9.566;2023-01-31T06:21:33;100551.16;;;0.47;100.00
31681;BME280;18281;51.364;9.566;2023-01-31T06:23:59;100552.88;;;0.49;100.00
31681;BME280;18281;51.364;9.566;2023-01-31T06:26:24;100556.34;;;0.42;100.00
31681;BME280;18281;51.364;9.566;2023-01-31T06:28:52;100559.78;;;0.44;100.00
31681;BME280;18281;51.364;9.566;2023-01-31T06:31:24;100553.78;;;0.37;100.00
31681;BME280;18281;51.364;9.566;2023-01-31T06:33:49;100559.88;;;0.26;100.00
31681;BME280;18281;51.364;9.566;2023-01-31T06:36:15;100559.88;;;0.26;100.00
31681;BME280;18281;51.364;9.566;2023-01-31T06:38:41;100566.72;;;0.30;100.00
31681;BME280;18281;51.364;9.566;2023-01-31T06:41:06;100555.50;;;0.39;100.00
31681;BME280;18281;51.364;9.566;2023-01-31T06:43:31;100555.50;;;0.40;100.00
31681;BME280;18281;51.364;9.566;2023-01-31T06:45:57;100562.38;;;0.44;100.00
31681;BME280;18281;51.364;9.566;2023-01-31T06:48:22;100568.41;;;0.37;100.00
31681;BME280;18281;51.364;9.566;2023-01-31T06:50:47;100568.38;;;0.45;100.00
31681;BME280;18281;51.364;9.566;2023-01-31T06:53:13;100564.16;;;0.34;100.00
31681;BME280;18281;51.364;9.566;2023-01-31T06:55:38;100569.25;;;0.41;100.00
31681;BME280;18281;51.364;9.566;2023-01-31T06:58:03;100565.84;;;0.35;100.00
31681;BME280;18281;51.364;9.566;2023-01-31T07:00:29;100560.66;;;0.42;100.00
31681;BME280;18281;51.364;9.566;2023-01-31T07:02:54;100556.34;;;0.45;100.00
31681;BME280;18281;51.364;9.566;2023-01-31T07:05:21;100557.28;;;0.32;100.00
31681;BME280;18281;51.364;9.566;2023-01-31T07:07:46;100550.34;;;0.35;100.00
31681;BME280;18281;51.364;9.566;2023-01-31T07:10:12;100554.66;;;0.35;100.00
31681;BME280;18281;51.364;9.566;2023-01-31T07:12:38;100560.72;;;0.31;100.00
31681;BME280;18281;51.364;9.566;2023-01-31T07:15:04;100563.34;;;0.18;100.00
31681;BME280;18281;51.364;9.566;2023-01-31T07:17:30;100561.59;;;0.19;100.00
31681;BME280;18281;51.364;9.566;2023-01-31T07:19:57;100558.16;;;0.22;100.00
31681;BME280;18281;51.364;9.566;2023-01-31T07:22:22;100562.44;;;0.27;100.00
31681;BME280;18281;51.364;9.566;2023-01-31T07:24:48;100553.84;;;0.25;100.00
31681;BME280;18281;51.364;9.566;2023-01-31T07:27:14;100546.09;;;0.27;100.00
31681;BME280;18281;51.364;9.566;2023-01-31T07:29:39;100547.81;;;0.25;100.00
31681;BME280;18281;51.364;9.566;2023-01-31T07:32:05;100553.88;;;0.19;100.00
31681;BME280;18281;51.364;9.566;2023-01-31T07:34:31;100567.59;;;0.21;100.00
31681;BME280;18281;51.364;9.566;2023-01-31T07:36:56;100563.31;;;0.25;100.00
31681;BME280;18281;51.364;9.566;2023-01-31T07:39:21;100552.94;;;0.34;100.00
31681;BME280;18281;51.364;9.566;2023-01-31T07:41:48;100544.34;;;0.29;100.00
31681;BME280;18281;51.364;9.566;2023-01-31T07:44:13;100542.63;;;0.25;100.00
31681;BME280;18281;51.364;9.566;2023-01-31T07:46:39;100536.69;;;0.13;100.00
31681;BME280;18281;51.364;9.566;2023-01-31T07:49:05;100532.31;;;0.26;100.00
31681;BME280;18281;51.364;9.566;2023-01-31T07:51:30;100528.91;;;0.23;100.00
31681;BME280;18281;51.364;9.566;2023-01-31T07:53:56;100528.00;;;0.24;100.00
31681;BME280;18281;51.364;9.566;2023-01-31T07:56:21;100522.03;;;0.08;100.00
31681;BME280;18281;51.364;9.566;2023-01-31T07:58:48;100527.19;;;0.15;100.00
31681;BME280;18281;51.364;9.566;2023-01-31T08:03:59;100538.91;;;1.84;100.00
31681;BME280;18281;51.364;9.566;2023-01-31T08:06:27;100539.88;;;1.75;100.00
31681;BME280;18281;51.364;9.566;2023-01-31T08:08:54;100528.09;;;1.43;100.00
31681;BME280;18281;51.364;9.566;2023-01-31T08:11:19;100523.09;;;1.25;100.00
31681;BME280;18281;51.364;9.566;2023-01-31T08:13:45;100522.31;;;1.13;100.00
31681;BME280;18281;51.364;9.566;2023-01-31T08:16:10;100510.38;;;1.01;100.00
31681;BME280;18281;51.364;9.566;2023-01-31T08:18:36;100504.34;;;0.95;100.00
31681;BME280;18281;51.364;9.566;2023-01-31T08:21:02;100506.13;;;0.83;100.00
31681;BME280;18281;51.364;9.566;2023-01-31T08:23:28;100501.91;;;0.76;100.00
31681;BME280;18281;51.364;9.566;2023-01-31T08:26:02;100499.31;;;0.73;100.00
31681;BME280;18281;51.364;9.566;2023-01-31T08:28:29;100499.34;;;0.70;100.00
31681;BME280;18281;51.364;9.566;2023-01-31T08:30:54;100496.75;;;0.75;100.00
31681;BME280;18281;51.364;9.566;2023-01-31T08:33:20;100496.78;;;0.68;100.00
31681;BME280;18281;51.364;9.566;2023-01-31T08:35:45;100484.72;;;0.67;100.00
31681;BME280;18281;51.364;9.566;2023-01-31T08:38:11;100493.38;;;0.62;100.00
31681;BME280;18281;51.364;9.566;2023-01-31T08:40:36;100493.38;;;0.60;100.00
31681;BME280;18281;51.364;9.566;2023-01-31T08:43:01;100489.91;;;0.60;100.00
31681;BME280;18281;51.364;9.566;2023-01-31T08:45:28;100481.38;;;0.50;100.00
31681;BME280;18281;51.364;9.566;2023-01-31T08:47:54;100486.47;;;0.65;100.00
31681;BME280;18281;51.364;9.566;2023-01-31T08:50:20;100478.69;;;0.64;100.00
31681;BME280;18281;51.364;9.566;2023-01-31T08:52:46;100471.81;;;0.66;100.00
31681;BME280;18281;51.364;9.566;2023-01-31T08:55:11;100473.56;;;0.59;100.00
31681;BME280;18281;51.364;9.566;2023-01-31T08:57:39;100475.28;;;0.60;100.00
31681;BME280;18281;51.364;9.566;2023-01-31T09:00:06;100477.91;;;0.59;100.00
31681;BME280;18281;51.364;9.566;2023-01-31T09:02:32;100471.84;;;0.58;100.00
31681;BME280;18281;51.364;9.566;2023-01-31T09:04:57;100468.41;;;0.59;100.00
31681;BME280;18281;51.364;9.566;2023-01-31T09:07:22;100473.59;;;0.58;100.00
31681;BME280;18281;51.364;9.566;2023-01-31T09:09:47;100455.56;;;0.48;100.00
31681;BME280;18281;51.364;9.566;2023-01-31T09:12:13;100459.84;;;0.52;100.00
31681;BME280;18281;51.364;9.566;2023-01-31T09:14:39;100456.41;;;0.53;100.00
31681;BME280;18281;51.364;9.566;2023-01-31T09:17:04;100445.19;;;0.56;100.00
31681;BME280;18281;51.364;9.566;2023-01-31T09:19:32;100444.31;;;0.56;100.00
31681;BME280;18281;51.364;9.566;2023-01-31T09:21:57;100448.66;;;0.53;100.00
31681;BME280;18281;51.364;9.566;2023-01-31T09:24:22;100443.44;;;0.58;100.00
31681;BME280;18281;51.364;9.566;2023-01-31T09:26:48;100434.84;;;0.56;100.00
31681;BME280;18281;51.364;9.566;2023-01-31T09:29:13;100444.28;;;0.57;100.00
31681;BME280;18281;51.364;9.566;2023-01-31T09:31:38;100445.16;;;0.59;100.00
31681;BME280;18281;51.364;9.566;2023-01-31T09:34:04;100451.13;;;0.66;100.00
31681;BME280;18281;51.364;9.566;2023-01-31T09:36:29;100445.13;;;0.62;100.00
31681;BME280;18281;51.364;9.566;2023-01-31T09:38:55;100433.06;;;0.63;100.00
31681;BME280;18281;51.364;9.566;2023-01-31T09:41:28;100439.06;;;0.68;100.00
31681;BME280;18281;51.364;9.566;2023-01-31T09:46:36;100433.03;;;0.67;100.00
31681;BME280;18281;51.364;9.566;2023-01-31T09:49:04;100429.56;;;0.70;100.00
31681;BME280;18281;51.364;9.566;2023-01-31T09:51:37;100426.09;;;0.74;100.00
31681;BME280;18281;51.364;9.566;2023-01-31T09:54:05;100414.88;;;0.77;100.00
31681;BME280;18281;51.364;9.566;2023-01-31T10:01:31;100419.91;;;0.91;100.00
31681;BME280;18281;51.364;9.566;2023-01-31T10:07:00;100420.00;;;0.83;100.00
31681;BME280;18281;51.364;9.566;2023-01-31T10:12:42;100414.78;;;0.87;100.00
31681;BME280;18281;51.364;9.566;2023-01-31T10:17:56;100405.22;;;0.96;100.00
31681;BME280;18281;51.364;9.566;2023-01-31T10:20:46;100397.56;;;0.88;100.00
31681;BME280;18281;51.364;9.566;2023-01-31T10:25:47;100380.34;;;0.85;100.00
31681;BME280;18281;51.364;9.566;2023-01-31T10:28:48;100373.44;;;0.86;100.00
31681;BME280;18281;51.364;9.566;2023-01-31T10:31:38;100378.53;;;0.94;100.00
31681;BME280;18281;51.364;9.566;2023-01-31T10:34:26;100377.69;;;0.90;100.00
31681;BME280;18281;51.364;9.566;2023-01-31T10:37:28;100380.31;;;0.88;100.00
31681;BME280;18281;51.364;9.566;2023-01-31T10:39:57;100378.50;;;0.97;100.00
31681;BME280;18281;51.364;9.566;2023-01-31T10:42:33;100370.75;;;0.95;100.00
31681;BME280;18281;51.364;9.566;2023-01-31T10:50:01;100360.38;;;1.03;100.00
31681;BME280;18281;51.364;9.566;2023-01-31T10:55:43;100364.78;;;1.68;100.00
31681;BME280;18281;51.364;9.566;2023-01-31T10:58:17;100367.81;;;2.57;100.00
31681;BME280;18281;51.364;9.566;2023-01-31T11:00:44;100355.41;;;2.75;100.00
31681;BME280;18281;51.364;9.566;2023-01-31T11:03:13;100361.13;;;2.94;100.00
31681;BME280;18281;51.364;9.566;2023-01-31T11:05:48;100347.03;;;2.59;100.00
31681;BME280;18281;51.364;9.566;2023-01-31T11:08:34;100349.88;;;2.43;100.00
31681;BME280;18281;51.364;9.566;2023-01-31T11:11:21;100345.06;;;2.20;100.00
31681;BME280;18281;51.364;9.566;2023-01-31T11:13:56;100338.34;;;2.07;100.00
31681;BME280;18281;51.364;9.566;2023-01-31T11:16:22;100358.50;;;1.84;100.00
31681;BME280;18281;51.364;9.566;2023-01-31T11:18:49;100350.88;;;1.77;100.00
31681;BME280;18281;51.364;9.566;2023-01-31T11:21:24;100353.69;;;1.60;100.00
31681;BME280;18281;51.364;9.566;2023-01-31T11:23:50;100350.22;;;1.61;100.00
31681;BME280;18281;51.364;9.566;2023-01-31T11:26:34;100338.22;;;1.53;100.00
31681;BME280;18281;51.364;9.566;2023-01-31T11:29:01;100331.34;;;1.52;100.00
31681;BME280;18281;51.364;9.566;2023-01-31T11:31:34;100320.19;;;1.49;100.00
31681;BME280;18281;51.364;9.566;2023-01-31T11:34:04;100321.91;;;1.48;100.00
31681;BME280;18281;51.364;9.566;2023-01-31T11:36:42;100315.19;;;1.33;100.00
31681;BME280;18281;51.364;9.566;2023-01-31T11:39:30;100307.56;;;1.23;100.00
31681;BME280;18281;51.364;9.566;2023-01-31T11:41:57;100290.47;;;1.12;100.00
31681;BME280;18281;51.364;9.566;2023-01-31T11:44:28;100276.53;;;1.23;100.00
31681;BME280;18281;51.364;9.566;2023-01-31T11:47:12;100276.63;;;1.15;100.00
31681;BME280;18281;51.364;9.566;2023-01-31T11:49:40;100274.06;;;1.15;100.00
31681;BME280;18281;51.364;9.566;2023-01-31T11:52:14;100276.59;;;1.18;100.00
31681;BME280;18281;51.364;9.566;2023-01-31T11:54:44;100267.97;;;1.17;100.00
31681;BME280;18281;51.364;9.566;2023-01-31T11:57:16;100249.81;;;1.22;100.00
31681;BME280;18281;51.364;9.566;2023-01-31T11:59:48;100247.34;;;1.13;100.00
31681;BME280;18281;51.364;9.566;2023-01-31T12:02:29;100245.72;;;1.04;100.00
31681;BME280;18281;51.364;9.566;2023-01-31T12:04:56;100244.03;;;1.03;100.00
31681;BME280;18281;51.364;9.566;2023-01-31T12:07:27;100241.34;;;1.09;100.00
31681;BME280;18281;51.364;9.566;2023-01-31T12:09:56;100243.09;;;1.07;100.00
31681;BME280;18281;51.364;9.566;2023-01-31T12:12:50;100224.13;;;1.08;100.00
31681;BME280;18281;51.364;9.566;2023-01-31T12:15:15;100219.06;;;1.00;100.00
31681;BME280;18281;51.364;9.566;2023-01-31T12:17:46;100208.34;;;1.27;100.00
31681;BME280;18281;51.364;9.566;2023-01-31T12:34:10;100182.63;;;1.16;100.00
31681;BME280;18281;51.364;9.566;2023-01-31T12:36:52;100182.69;;;1.13;100.00
31681;BME280;18281;51.364;9.566;2023-01-31T12:39:35;100174.06;;;1.14;100.00
31681;BME280;18281;51.364;9.566;2023-01-31T12:51:26;100197.44;;;1.06;100.00
31681;BME280;18281;51.364;9.566;2023-01-31T12:54:19;100201.72;;;1.09;100.00
31681;BME280;18281;51.364;9.566;2023-01-31T13:01:59;100185.47;;;0.99;100.00
31681;BME280;18281;51.364;9.566;2023-01-31T13:04:51;100177.59;;;1.08;100.00
31681;BME280;18281;51.364;9.566;2023-01-31T13:07:29;100174.13;;;1.08;100.00
31681;BME280;18281;51.364;9.566;2023-01-31T13:10:00;100167.94;;;1.19;100.00
31681;BME280;18281;51.364;9.566;2023-01-31T13:12:30;100173.97;;;1.20;100.00
31681;BME280;18281;51.364;9.566;2023-01-31T13:15:01;100165.34;;;1.19;100.00
31681;BME280;18281;51.364;9.566;2023-01-31T13:17:30;100161.91;;;1.20;100.00
31681;BME280;18281;51.364;9.566;2023-01-31T13:20:20;100166.34;;;1.09;100.00
31681;BME280;18281;51.364;9.566;2023-01-31T13:22:52;100156.16;;;1.01;100.00
31681;BME280;18281;51.364;9.566;2023-01-31T13:25:43;100140.56;;;1.06;100.00
31681;BME280;18281;51.364;9.566;2023-01-31T13:30:42;100158.63;;;1.08;100.00
31681;BME280;18281;51.364;9.566;2023-01-31T13:33:45;100145.66;;;1.12;100.00
31681;BME280;18281;51.364;9.566;2023-01-31T13:36:23;100158.66;;;2.15;100.00
31681;BME280;18281;51.364;9.566;2023-01-31T13:38:49;100150.63;;;2.73;100.00
31681;BME280;18281;51.364;9.566;2023-01-31T13:41:21;100158.81;;;2.51;100.00
31681;BME280;18281;51.364;9.566;2023-01-31T13:43:50;100153.88;;;2.39;100.00
31681;BME280;18281;51.364;9.566;2023-01-31T13:46:19;100148.88;;;2.30;100.00
31681;BME280;18281;51.364;9.566;2023-01-31T13:48:56;100151.16;;;2.00;100.00
31681;BME280;18281;51.364;9.566;2023-01-31T13:51:33;100148.81;;;1.84;100.00
31681;BME280;18281;51.364;9.566;2023-01-31T13:54:10;100154.94;;;1.79;100.00
31681;BME280;18281;51.364;9.566;2023-01-31T13:56:38;100147.22;;;1.77;100.00
31681;BME280;18281;51.364;9.566;2023-01-31T13:59:09;100156.84;;;1.69;100.00
31681;BME280;18281;51.364;9.566;2023-01-31T14:01:43;100157.97;;;1.51;100.00
31681;BME280;18281;51.364;9.566;2023-01-31T14:09:36;100159.75;;;1.49;100.00
31681;BME280;18281;51.364;9.566;2023-01-31T14:22:18;100181.41;;;1.43;100.00
31681;BME280;18281;51.364;9.566;2023-01-31T14:30:32;100184.94;;;1.36;100.00
31681;BME280;18281;51.364;9.566;2023-01-31T14:35:45;100179.72;;;1.41;100.00
31681;BME280;18281;51.364;9.566;2023-01-31T14:46:31;100186.72;;;1.34;100.00
31681;BME280;18281;51.364;9.566;2023-01-31T14:57:41;100177.34;;;1.25;100.00
31681;BME280;18281;51.364;9.566;2023-01-31T15:00:19;100180.78;;;1.27;100.00
31681;BME280;18281;51.364;9.566;2023-01-31T15:02:49;100180.94;;;1.16;100.00
31681;BME280;18281;51.364;9.566;2023-01-31T15:05:17;100179.19;;;1.17;100.00
31681;BME280;18281;51.364;9.566;2023-01-31T15:15:56;100172.22;;;1.22;100.00
31681;BME280;18281;51.364;9.566;2023-01-31T15:18:22;100167.88;;;1.26;100.00
31681;BME280;18281;51.364;9.566;2023-01-31T15:20:54;100166.06;;;1.29;100.00
31681;BME280;18281;51.364;9.566;2023-01-31T15:23:27;100173.94;;;1.23;100.00
31681;BME280;18281;51.364;9.566;2023-01-31T15:25:54;100167.91;;;1.21;100.00
31681;BME280;18281;51.364;9.566;2023-01-31T15:28:28;100167.06;;;1.20;100.00